sensor_id;sensor_type;location;lat;lon;timestamp;P1;durP1;ratioP1;P2;durP2;ratioP2
46607;SDS011;32330;51.936;7.184;2022-12-07T03:18:06;10.32;;;7.13;;
46607;SDS011;32330;51.936;7.184;2022-12-07T03:20:35;14.65;;;7.82;;
46607;SDS011;32330;51.936;7.184;2022-12-07T03:23:05;11.32;;;6.70;;
46607;SDS011;32330;51.936;7.184;2022-12-07T03:25:34;10.63;;;6.90;;
46607;SDS011;32330;51.936;7.184;2022-12-07T03:28:05;8.60;;;7.35;;
46607;SDS011;32330;51.936;7.184;2022-12-07T03:30:36;11.48;;;7.18;;
46607;SDS011;32330;51.936;7.184;2022-12-07T03:33:09;11.77;;;7.53;;
46607;SDS011;32330;51.936;7.184;2022-12-07T03:35:39;14.38;;;6.85;;
46607;SDS011;32330;51.936;7.184;2022-12-07T03:38:12;11.73;;;7.00;;
46607;SDS011;32330;51.936;7.184;2022-12-07T03:40:44;11.95;;;7.00;;
46607;SDS011;32330;51.936;7.184;2022-12-07T03:43:16;12.40;;;7.05;;
46607;SDS011;32330;51.936;7.184;2022-12-07T03:45:48;10.98;;;5.88;;
46607;SDS011;32330;51.936;7.184;2022-12-07T03:48:25;8.85;;;5.72;;
46607;SDS011;32330;51.936;7.184;2022-12-07T03:51:00;7.50;;;5.43;;
46607;SDS011;32330;51.936;7.184;2022-12-07T03:53:33;11.13;;;6.28;;
46607;SDS011;32330;51.936;7.184;2022-12-07T03:56:03;9.37;;;5.53;;
46607;SDS011;32330;51.936;7.184;2022-12-07T03:58:31;8.18;;;5.65;;
46607;SDS011;32330;51.936;7.184;2022-12-07T04:01:01;9.57;;;5.43;;
46607;SDS011;32330;51.936;7.184;2022-12-07T04:03:28;11.23;;;5.22;;
46607;SDS011;32330;51.936;7.184;2022-12-07T04:05:55;9.35;;;5.03;;
46607;SDS011;32330;51.936;7.184;2022-12-07T04:08:23;9.70;;;5.32;;
46607;SDS011;32330;51.936;7.184;2022-12-07T04:10:50;9.98;;;5.03;;
46607;SDS011;32330;51.936;7.184;2022-12-07T04:13:17;7.95;;;5.22;;
46607;SDS011;32330;51.936;7.184;2022-12-07T04:15:44;12.30;;;5.60;;
46607;SDS011;32330;51.936;7.184;2022-12-07T04:18:12;10.80;;;4.60;;
46607;SDS011;32330;51.936;7.184;2022-12-07T04:20:39;7.20;;;4.68;;
46607;SDS011;32330;51.936;7.184;2022-12-07T04:23:06;13.02;;;4.45;;
46607;SDS011;32330;51.936;7.184;2022-12-07T04:25:33;8.13;;;4.35;;
46607;SDS011;32330;51.936;7.184;2022-12-07T04:28:00;11.25;;;4.95;;
46607;SDS011;32330;51.936;7.184;2022-12-07T04:30:27;6.97;;;4.15;;
46607;SDS011;32330;51.936;7.184;2022-12-07T04:32:54;8.13;;;3.92;;
46607;SDS011;32330;51.936;7.184;2022-12-07T04:35:22;7.57;;;4.05;;
46607;SDS011;32330;51.936;7.184;2022-12-07T04:37:49;6.93;;;3.28;;
46607;SDS011;32330;51.936;7.184;2022-12-07T04:40:16;8.35;;;3.65;;
46607;SDS011;32330;51.936;7.184;2022-12-07T04:42:43;7.57;;;4.38;;
46607;SDS011;32330;51.936;7.184;2022-12-07T04:45:28;19.40;;;5.53;;
46607;SDS011;32330;51.936;7.184;2022-12-07T04:47:55;11.70;;;5.60;;
46607;SDS011;32330;51.936;7.184;2022-12-07T04:50:23;10.65;;;4.38;;
46607;SDS011;32330;51.936;7.184;2022-12-07T04:52:51;6.65;;;3.85;;
46607;SDS011;32330;51.936;7.184;2022-12-07T04:55:18;11.52;;;4.50;;
46607;SDS011;32330;51.936;7.184;2022-12-07T04:57:45;8.10;;;3.88;;
46607;SDS011;32330;51.936;7.184;2022-12-07T05:00:12;6.53;;;3.88;;
46607;SDS011;32330;51.936;7.184;2022-12-07T05:02:39;10.38;;;4.68;;
46607;SDS011;32330;51.936;7.184;2022-12-07T05:05:06;10.02;;;4.30;;
46607;SDS011;32330;51.936;7.184;2022-12-07T05:07:35;10.63;;;3.42;;
46607;SDS011;32330;51.936;7.184;2022-12-07T05:10:02;10.32;;;3.80;;
46607;SDS011;32330;51.936;7.184;2022-12-07T05:12:29;6.07;;;3.60;;
46607;SDS011;32330;51.936;7.184;2022-12-07T05:14:56;8.98;;;3.42;;
46607;SDS011;32330;51.936;7.184;2022-12-07T05:17:23;8.85;;;5.20;;
46607;SDS011;32330;51.936;7.184;2022-12-07T05:19:50;8.98;;;3.60;;
46607;SDS011;32330;51.936;7.184;2022-12-07T05:22:17;7.15;;;3.67;;
46607;SDS011;32330;51.936;7.184;2022-12-07T05:24:45;15.10;;;3.72;;
46607;SDS011;32330;51.936;7.184;2022-12-07T05:27:12;8.85;;;4.07;;
46607;SDS011;32330;51.936;7.184;2022-12-07T05:29:39;7.53;;;4.22;;
46607;SDS011;32330;51.936;7.184;2022-12-07T05:32:06;7.32;;;3.63;;
46607;SDS011;32330;51.936;7.184;2022-12-07T05:34:33;4.70;;;3.25;;
46607;SDS011;32330;51.936;7.184;2022-12-07T05:37:00;9.23;;;4.18;;
46607;SDS011;32330;51.936;7.184;2022-12-07T05:39:27;6.57;;;4.38;;
46607;SDS011;32330;51.936;7.184;2022-12-07T05:41:55;9.32;;;4.07;;
46607;SDS011;32330;51.936;7.184;2022-12-07T05:44:40;6.38;;;3.90;;
46607;SDS011;32330;51.936;7.184;2022-12-07T05:47:08;5.53;;;3.67;;
46607;SDS011;32330;51.936;7.184;2022-12-07T05:49:35;7.03;;;3.72;;
46607;SDS011;32330;51.936;7.184;2022-12-07T05:52:02;9.05;;;4.00;;
46607;SDS011;32330;51.936;7.184;2022-12-07T05:54:30;14.10;;;3.65;;
46607;SDS011;32330;51.936;7.184;2022-12-07T05:56:58;8.98;;;3.92;;
46607;SDS011;32330;51.936;7.184;2022-12-07T05:59:25;6.90;;;4.05;;
46607;SDS011;32330;51.936;7.184;2022-12-07T06:01:53;9.93;;;3.80;;
46607;SDS011;32330;51.936;7.184;2022-12-07T06:04:21;10.10;;;3.90;;
46607;SDS011;32330;51.936;7.184;2022-12-07T06:06:50;9.35;;;3.75;;
46607;SDS011;32330;51.936;7.184;2022-12-07T06:09:17;8.60;;;3.78;;
46607;SDS011;32330;51.936;7.184;2022-12-07T06:11:45;7.32;;;3.50;;
46607;SDS011;32330;51.936;7.184;2022-12-07T06:14:31;7.75;;;3.83;;
46607;SDS011;32330;51.936;7.184;2022-12-07T06:16:58;10.48;;;4.03;;
46607;SDS011;32330;51.936;7.184;2022-12-07T06:19:25;7.40;;;3.67;;
46607;SDS011;32330;51.936;7.184;2022-12-07T06:21:52;6.63;;;4.07;;
46607;SDS011;32330;51.936;7.184;2022-12-07T06:24:19;10.32;;;4.63;;
46607;SDS011;32330;51.936;7.184;2022-12-07T06:26:46;8.13;;;4.40;;
46607;SDS011;32330;51.936;7.184;2022-12-07T06:29:13;10.23;;;4.15;;
46607;SDS011;32330;51.936;7.184;2022-12-07T06:31:42;7.68;;;3.78;;
46607;SDS011;32330;51.936;7.184;2022-12-07T06:34:11;9.48;;;4.30;;
46607;SDS011;32330;51.936;7.184;2022-12-07T06:36:39;7.97;;;3.35;;
46607;SDS011;32330;51.936;7.184;2022-12-07T06:39:06;7.07;;;3.42;;
46607;SDS011;32330;51.936;7.184;2022-12-07T06:41:34;12.45;;;4.20;;
46607;SDS011;32330;51.936;7.184;2022-12-07T06:44:02;8.38;;;3.40;;
46607;SDS011;32330;51.936;7.184;2022-12-07T06:46:29;9.98;;;3.65;;
46607;SDS011;32330;51.936;7.184;2022-12-07T06:48:57;11.82;;;3.65;;
46607;SDS011;32330;51.936;7.184;2022-12-07T06:51:24;8.90;;;2.90;;
46607;SDS011;32330;51.936;7.184;2022-12-07T06:53:51;11.57;;;3.90;;
46607;SDS011;32330;51.936;7.184;2022-12-07T06:56:18;11.98;;;3.40;;
46607;SDS011;32330;51.936;7.184;2022-12-07T06:58:45;9.07;;;3.65;;
46607;SDS011;32330;51.936;7.184;2022-12-07T07:01:13;7.65;;;2.90;;
46607;SDS011;32330;51.936;7.184;2022-12-07T07:03:41;8.55;;;3.28;;
46607;SDS011;32330;51.936;7.184;2022-12-07T07:06:10;9.32;;;3.47;;
46607;SDS011;32330;51.936;7.184;2022-12-07T07:08:37;8.15;;;3.42;;
46607;SDS011;32330;51.936;7.184;2022-12-07T07:11:05;7.13;;;3.08;;
46607;SDS011;32330;51.936;7.184;2022-12-07T07:13:32;12.55;;;3.53;;
46607;SDS011;32330;51.936;7.184;2022-12-07T07:16:00;5.88;;;2.95;;
46607;SDS011;32330;51.936;7.184;2022-12-07T07:18:27;10.43;;;3.22;;
46607;SDS011;32330;51.936;7.184;2022-12-07T07:20:54;7.32;;;3.60;;
46607;SDS011;32330;51.936;7.184;2022-12-07T07:23:23;5.85;;;3.03;;
46607;SDS011;32330;51.936;7.184;2022-12-07T07:25:50;11.90;;;7.07;;
46607;SDS011;32330;51.936;7.184;2022-12-07T07:28:17;10.27;;;5.10;;
46607;SDS011;32330;51.936;7.184;2022-12-07T07:30:44;8.57;;;3.42;;
46607;SDS011;32330;51.936;7.184;2022-12-07T07:33:11;7.78;;;3.70;;
46607;SDS011;32330;51.936;7.184;2022-12-07T07:35:38;7.13;;;4.28;;
46607;SDS011;32330;51.936;7.184;2022-12-07T07:38:06;9.70;;;4.03;;
46607;SDS011;32330;51.936;7.184;2022-12-07T07:40:35;12.50;;;6.75;;
46607;SDS011;32330;51.936;7.184;2022-12-07T07:43:02;14.07;;;7.10;;
46607;SDS011;32330;51.936;7.184;2022-12-07T07:45:29;10.90;;;5.97;;
46607;SDS011;32330;51.936;7.184;2022-12-07T07:47:56;15.18;;;5.07;;
46607;SDS011;32330;51.936;7.184;2022-12-07T07:50:23;11.10;;;4.30;;
46607;SDS011;32330;51.936;7.184;2022-12-07T07:52:50;13.30;;;4.60;;
46607;SDS011;32330;51.936;7.184;2022-12-07T07:55:17;4.78;;;3.33;;
46607;SDS011;32330;51.936;7.184;2022-12-07T07:57:46;9.65;;;3.92;;
46607;SDS011;32330;51.936;7.184;2022-12-07T08:00:13;11.65;;;4.50;;
46607;SDS011;32330;51.936;7.184;2022-12-07T08:02:42;16.58;;;5.65;;
46607;SDS011;32330;51.936;7.184;2022-12-07T08:05:10;8.45;;;4.80;;
46607;SDS011;32330;51.936;7.184;2022-12-07T08:07:37;9.38;;;5.15;;
46607;SDS011;32330;51.936;7.184;2022-12-07T08:10:05;7.78;;;4.43;;
46607;SDS011;32330;51.936;7.184;2022-12-07T08:12:35;11.63;;;6.63;;
46607;SDS011;32330;51.936;7.184;2022-12-07T08:15:25;10.70;;;5.95;;
46607;SDS011;32330;51.936;7.184;2022-12-07T08:17:53;9.77;;;5.32;;
46607;SDS011;32330;51.936;7.184;2022-12-07T08:20:20;9.13;;;5.22;;
46607;SDS011;32330;51.936;7.184;2022-12-07T08:22:47;9.77;;;4.93;;
46607;SDS011;32330;51.936;7.184;2022-12-07T08:25:14;10.68;;;5.40;;
46607;SDS011;32330;51.936;7.184;2022-12-07T08:27:41;10.75;;;5.50;;
46607;SDS011;32330;51.936;7.184;2022-12-07T08:30:08;10.15;;;5.20;;
46607;SDS011;32330;51.936;7.184;2022-12-07T08:32:37;9.85;;;4.72;;
46607;SDS011;32330;51.936;7.184;2022-12-07T08:35:04;13.23;;;6.80;;
46607;SDS011;32330;51.936;7.184;2022-12-07T08:37:32;11.65;;;6.25;;
46607;SDS011;32330;51.936;7.184;2022-12-07T08:39:58;9.73;;;6.13;;
46607;SDS011;32330;51.936;7.184;2022-12-07T08:42:25;11.18;;;6.07;;
46607;SDS011;32330;51.936;7.184;2022-12-07T08:44:55;10.82;;;6.03;;
46607;SDS011;32330;51.936;7.184;2022-12-07T08:47:23;11.05;;;5.22;;
46607;SDS011;32330;51.936;7.184;2022-12-07T08:49:52;13.25;;;5.13;;
46607;SDS011;32330;51.936;7.184;2022-12-07T08:52:20;12.43;;;5.38;;
46607;SDS011;32330;51.936;7.184;2022-12-07T08:54:47;7.45;;;4.93;;
46607;SDS011;32330;51.936;7.184;2022-12-07T08:57:14;17.33;;;9.68;;
46607;SDS011;32330;51.936;7.184;2022-12-07T08:59:41;11.50;;;5.25;;
46607;SDS011;32330;51.936;7.184;2022-12-07T09:02:08;10.15;;;5.95;;
46607;SDS011;32330;51.936;7.184;2022-12-07T09:04:35;11.27;;;5.18;;
46607;SDS011;32330;51.936;7.184;2022-12-07T09:07:03;10.57;;;4.85;;
46607;SDS011;32330;51.936;7.184;2022-12-07T09:09:31;8.40;;;4.93;;
46607;SDS011;32330;51.936;7.184;2022-12-07T09:11:58;12.18;;;5.20;;
46607;SDS011;32330;51.936;7.184;2022-12-07T09:14:25;10.73;;;5.10;;
46607;SDS011;32330;51.936;7.184;2022-12-07T09:16:52;15.25;;;7.18;;
46607;SDS011;32330;51.936;7.184;2022-12-07T09:19:19;11.10;;;5.47;;
46607;SDS011;32330;51.936;7.184;2022-12-07T09:21:46;11.13;;;6.38;;
46607;SDS011;32330;51.936;7.184;2022-12-07T09:24:15;12.25;;;5.82;;
46607;SDS011;32330;51.936;7.184;2022-12-07T09:26:42;11.68;;;5.00;;
46607;SDS011;32330;51.936;7.184;2022-12-07T09:29:09;8.68;;;3.95;;
46607;SDS011;32330;51.936;7.184;2022-12-07T09:31:36;7.15;;;4.53;;
46607;SDS011;32330;51.936;7.184;2022-12-07T09:34:04;10.60;;;4.65;;
46607;SDS011;32330;51.936;7.184;2022-12-07T09:36:34;11.43;;;4.97;;
46607;SDS011;32330;51.936;7.184;2022-12-07T09:39:01;9.68;;;4.80;;
46607;SDS011;32330;51.936;7.184;2022-12-07T09:41:33;11.53;;;5.87;;
46607;SDS011;32330;51.936;7.184;2022-12-07T09:44:05;13.18;;;4.68;;
46607;SDS011;32330;51.936;7.184;2022-12-07T09:46:36;11.68;;;5.25;;
46607;SDS011;32330;51.936;7.184;2022-12-07T09:49:05;9.80;;;4.93;;
46607;SDS011;32330;51.936;7.184;2022-12-07T09:51:38;9.35;;;4.57;;
46607;SDS011;32330;51.936;7.184;2022-12-07T09:54:05;8.27;;;4.28;;
46607;SDS011;32330;51.936;7.184;2022-12-07T09:56:33;9.45;;;5.10;;
46607;SDS011;32330;51.936;7.184;2022-12-07T09:59:00;9.32;;;4.30;;
46607;SDS011;32330;51.936;7.184;2022-12-07T10:01:29;11.05;;;4.45;;
46607;SDS011;32330;51.936;7.184;2022-12-07T10:06:50;8.63;;;3.97;;
46607;SDS011;32330;51.936;7.184;2022-12-07T10:09:19;6.22;;;3.90;;
46607;SDS011;32330;51.936;7.184;2022-12-07T10:12:05;11.27;;;4.53;;
46607;SDS011;32330;51.936;7.184;2022-12-07T10:14:34;6.97;;;3.83;;
46607;SDS011;32330;51.936;7.184;2022-12-07T10:17:05;11.60;;;6.20;;
46607;SDS011;32330;51.936;7.184;2022-12-07T10:20:05;9.93;;;4.38;;
46607;SDS011;32330;51.936;7.184;2022-12-07T10:22:59;9.98;;;4.22;;
46607;SDS011;32330;51.936;7.184;2022-12-07T10:27:58;6.18;;;3.47;;
46607;SDS011;32330;51.936;7.184;2022-12-07T10:30:28;10.80;;;4.75;;
46607;SDS011;32330;51.936;7.184;2022-12-07T10:32:56;8.55;;;3.80;;
46607;SDS011;32330;51.936;7.184;2022-12-07T10:35:24;9.60;;;3.80;;
46607;SDS011;32330;51.936;7.184;2022-12-07T10:37:55;10.63;;;3.80;;
46607;SDS011;32330;51.936;7.184;2022-12-07T10:40:28;8.90;;;3.93;;
46607;SDS011;32330;51.936;7.184;2022-12-07T10:43:02;5.57;;;3.08;;
46607;SDS011;32330;51.936;7.184;2022-12-07T10:45:54;10.30;;;4.50;;
46607;SDS011;32330;51.936;7.184;2022-12-07T10:48:42;12.15;;;3.63;;
46607;SDS011;32330;51.936;7.184;2022-12-07T10:51:17;5.90;;;3.60;;
46607;SDS011;32330;51.936;7.184;2022-12-07T10:53:54;10.50;;;3.95;;
46607;SDS011;32330;51.936;7.184;2022-12-07T10:56:32;8.73;;;3.40;;
46607;SDS011;32330;51.936;7.184;2022-12-07T10:59:17;10.43;;;3.67;;
46607;SDS011;32330;51.936;7.184;2022-12-07T11:01:54;8.52;;;4.50;;
46607;SDS011;32330;51.936;7.184;2022-12-07T11:04:31;8.13;;;2.85;;
46607;SDS011;32330;51.936;7.184;2022-12-07T11:07:06;9.75;;;3.28;;
46607;SDS011;32330;51.936;7.184;2022-12-07T11:12:37;7.35;;;2.67;;
46607;SDS011;32330;51.936;7.184;2022-12-07T11:15:26;6.97;;;3.13;;
46607;SDS011;32330;51.936;7.184;2022-12-07T11:17:58;5.90;;;2.20;;
46607;SDS011;32330;51.936;7.184;2022-12-07T11:20:34;12.10;;;3.78;;
46607;SDS011;32330;51.936;7.184;2022-12-07T11:23:12;7.57;;;3.00;;
46607;SDS011;32330;51.936;7.184;2022-12-07T11:25:47;10.25;;;3.35;;
46607;SDS011;32330;51.936;7.184;2022-12-07T11:28:21;9.23;;;2.85;;
46607;SDS011;32330;51.936;7.184;2022-12-07T11:31:02;7.65;;;2.35;;
46607;SDS011;32330;51.936;7.184;2022-12-07T11:33:39;7.32;;;2.72;;
46607;SDS011;32330;51.936;7.184;2022-12-07T11:36:16;10.23;;;2.60;;
46607;SDS011;32330;51.936;7.184;2022-12-07T11:38:55;6.22;;;2.03;;
46607;SDS011;32330;51.936;7.184;2022-12-07T11:41:27;5.55;;;2.20;;
46607;SDS011;32330;51.936;7.184;2022-12-07T11:43:58;7.07;;;2.45;;
46607;SDS011;32330;51.936;7.184;2022-12-07T11:46:35;11.45;;;2.60;;
46607;SDS011;32330;51.936;7.184;2022-12-07T11:49:12;6.03;;;1.95;;
46607;SDS011;32330;51.936;7.184;2022-12-07T11:51:43;4.75;;;1.65;;
46607;SDS011;32330;51.936;7.184;2022-12-07T11:54:12;5.35;;;1.63;;
46607;SDS011;32330;51.936;7.184;2022-12-07T11:56:44;6.63;;;1.90;;
46607;SDS011;32330;51.936;7.184;2022-12-07T11:59:16;4.90;;;1.88;;
46607;SDS011;32330;51.936;7.184;2022-12-07T12:01:52;4.38;;;1.80;;
46607;SDS011;32330;51.936;7.184;2022-12-07T12:04:32;6.80;;;2.10;;
46607;SDS011;32330;51.936;7.184;2022-12-07T12:07:06;5.32;;;1.70;;
46607;SDS011;32330;51.936;7.184;2022-12-07T12:09:34;5.95;;;1.83;;
46607;SDS011;32330;51.936;7.184;2022-12-07T12:12:25;8.65;;;2.47;;
46607;SDS011;32330;51.936;7.184;2022-12-07T12:15:18;7.47;;;1.90;;
46607;SDS011;32330;51.936;7.184;2022-12-07T12:21:01;6.05;;;1.83;;
46607;SDS011;32330;51.936;7.184;2022-12-07T12:23:35;7.20;;;1.70;;
46607;SDS011;32330;51.936;7.184;2022-12-07T12:26:06;7.03;;;1.90;;
46607;SDS011;32330;51.936;7.184;2022-12-07T12:28:41;6.35;;;1.83;;
46607;SDS011;32330;51.936;7.184;2022-12-07T12:31:29;7.88;;;2.20;;
46607;SDS011;32330;51.936;7.184;2022-12-07T12:34:04;5.15;;;1.83;;
46607;SDS011;32330;51.936;7.184;2022-12-07T12:36:46;4.85;;;1.75;;
46607;SDS011;32330;51.936;7.184;2022-12-07T12:39:14;6.07;;;2.15;;
46607;SDS011;32330;51.936;7.184;2022-12-07T12:41:54;7.32;;;1.85;;
46607;SDS011;32330;51.936;7.184;2022-12-07T12:44:41;6.60;;;1.60;;
46607;SDS011;32330;51.936;7.184;2022-12-07T12:47:40;7.82;;;2.92;;
46607;SDS011;32330;51.936;7.184;2022-12-07T12:50:24;6.45;;;1.75;;
46607;SDS011;32330;51.936;7.184;2022-12-07T12:53:12;3.90;;;1.52;;
46607;SDS011;32330;51.936;7.184;2022-12-07T12:55:48;4.93;;;1.70;;
46607;SDS011;32330;51.936;7.184;2022-12-07T12:58:41;6.78;;;2.42;;
46607;SDS011;32330;51.936;7.184;2022-12-07T13:04:23;10.15;;;2.47;;
46607;SDS011;32330;51.936;7.184;2022-12-07T13:06:58;6.13;;;1.90;;
46607;SDS011;32330;51.936;7.184;2022-12-07T13:09:25;7.05;;;1.73;;
46607;SDS011;32330;51.936;7.184;2022-12-07T13:11:55;9.40;;;1.90;;
46607;SDS011;32330;51.936;7.184;2022-12-07T13:14:51;4.93;;;1.40;;
46607;SDS011;32330;51.936;7.184;2022-12-07T13:23:21;9.82;;;2.88;;
46607;SDS011;32330;51.936;7.184;2022-12-07T13:25:54;8.18;;;2.45;;
46607;SDS011;32330;51.936;7.184;2022-12-07T13:28:32;5.70;;;1.88;;
46607;SDS011;32330;51.936;7.184;2022-12-07T13:31:18;5.47;;;1.60;;
46607;SDS011;32330;51.936;7.184;2022-12-07T13:33:59;5.18;;;1.90;;
46607;SDS011;32330;51.936;7.184;2022-12-07T13:36:27;8.70;;;2.00;;
46607;SDS011;32330;51.936;7.184;2022-12-07T13:39:16;8.15;;;1.70;;
46607;SDS011;32330;51.936;7.184;2022-12-07T13:41:48;9.50;;;4.50;;
46607;SDS011;32330;51.936;7.184;2022-12-07T13:44:18;6.80;;;2.08;;
46607;SDS011;32330;51.936;7.184;2022-12-07T13:46:48;5.18;;;1.67;;
46607;SDS011;32330;51.936;7.184;2022-12-07T13:49:24;6.13;;;1.92;;
46607;SDS011;32330;51.936;7.184;2022-12-07T13:51:53;10.25;;;2.88;;
46607;SDS011;32330;51.936;7.184;2022-12-07T13:54:22;7.03;;;2.10;;
46607;SDS011;32330;51.936;7.184;2022-12-07T13:56:50;5.32;;;1.50;;
46607;SDS011;32330;51.936;7.184;2022-12-07T13:59:18;5.60;;;1.60;;
46607;SDS011;32330;51.936;7.184;2022-12-07T14:01:47;7.90;;;1.60;;
46607;SDS011;32330;51.936;7.184;2022-12-07T14:04:17;7.22;;;2.00;;
46607;SDS011;32330;51.936;7.184;2022-12-07T14:06:49;8.18;;;1.67;;
46607;SDS011;32330;51.936;7.184;2022-12-07T14:09:18;6.00;;;2.40;;
46607;SDS011;32330;51.936;7.184;2022-12-07T14:11:49;8.18;;;2.30;;
46607;SDS011;32330;51.936;7.184;2022-12-07T14:14:20;7.20;;;2.07;;
46607;SDS011;32330;51.936;7.184;2022-12-07T14:16:59;5.80;;;1.80;;
46607;SDS011;32330;51.936;7.184;2022-12-07T14:19:42;10.38;;;2.50;;
46607;SDS011;32330;51.936;7.184;2022-12-07T14:22:25;7.18;;;1.98;;
46607;SDS011;32330;51.936;7.184;2022-12-07T14:25:00;9.02;;;2.65;;
46607;SDS011;32330;51.936;7.184;2022-12-07T14:27:49;7.20;;;1.80;;
46607;SDS011;32330;51.936;7.184;2022-12-07T14:30:18;5.80;;;1.77;;
46607;SDS011;32330;51.936;7.184;2022-12-07T14:32:46;7.30;;;2.55;;
46607;SDS011;32330;51.936;7.184;2022-12-07T14:35:17;6.10;;;1.75;;
46607;SDS011;32330;51.936;7.184;2022-12-07T14:37:45;8.35;;;2.03;;
46607;SDS011;32330;51.936;7.184;2022-12-07T14:40:13;8.23;;;2.08;;
46607;SDS011;32330;51.936;7.184;2022-12-07T14:42:42;4.82;;;1.98;;
46607;SDS011;32330;51.936;7.184;2022-12-07T14:45:17;5.68;;;1.63;;
46607;SDS011;32330;51.936;7.184;2022-12-07T14:47:45;7.60;;;1.98;;
46607;SDS011;32330;51.936;7.184;2022-12-07T14:50:13;9.13;;;2.10;;
46607;SDS011;32330;51.936;7.184;2022-12-07T14:52:42;5.88;;;1.52;;
46607;SDS011;32330;51.936;7.184;2022-12-07T14:55:13;6.53;;;2.30;;
46607;SDS011;32330;51.936;7.184;2022-12-07T14:57:42;7.22;;;1.60;;
46607;SDS011;32330;51.936;7.184;2022-12-07T15:00:13;6.90;;;2.00;;
46607;SDS011;32330;51.936;7.184;2022-12-07T15:02:43;8.25;;;2.00;;
46607;SDS011;32330;51.936;7.184;2022-12-07T15:05:10;7.88;;;2.47;;
46607;SDS011;32330;51.936;7.184;2022-12-07T15:07:37;9.32;;;2.95;;
46607;SDS011;32330;51.936;7.184;2022-12-07T15:10:04;6.40;;;2.30;;
46607;SDS011;32330;51.936;7.184;2022-12-07T15:12:33;8.55;;;2.40;;
46607;SDS011;32330;51.936;7.184;2022-12-07T15:14:59;5.75;;;2.45;;
46607;SDS011;32330;51.936;7.184;2022-12-07T15:17:29;8.68;;;2.83;;
46607;SDS011;32330;51.936;7.184;2022-12-07T15:19:55;7.75;;;2.97;;
46607;SDS011;32330;51.936;7.184;2022-12-07T15:22:36;5.87;;;2.60;;
46607;SDS011;32330;51.936;7.184;2022-12-07T15:25:03;9.73;;;2.60;;
46607;SDS011;32330;51.936;7.184;2022-12-07T15:27:31;12.35;;;3.35;;
46607;SDS011;32330;51.936;7.184;2022-12-07T15:29:58;9.70;;;2.88;;
46607;SDS011;32330;51.936;7.184;2022-12-07T15:32:25;8.07;;;3.25;;
46607;SDS011;32330;51.936;7.184;2022-12-07T15:34:53;12.30;;;3.47;;
46607;SDS011;32330;51.936;7.184;2022-12-07T15:37:20;6.70;;;3.55;;
46607;SDS011;32330;51.936;7.184;2022-12-07T15:39:47;9.13;;;3.85;;
46607;SDS011;32330;51.936;7.184;2022-12-07T15:42:13;7.75;;;3.10;;
46607;SDS011;32330;51.936;7.184;2022-12-07T15:44:40;10.90;;;3.70;;
46607;SDS011;32330;51.936;7.184;2022-12-07T15:47:25;6.32;;;3.00;;
46607;SDS011;32330;51.936;7.184;2022-12-07T15:49:53;8.65;;;4.25;;
46607;SDS011;32330;51.936;7.184;2022-12-07T15:52:20;9.43;;;3.25;;
46607;SDS011;32330;51.936;7.184;2022-12-07T15:54:47;9.95;;;3.40;;
46607;SDS011;32330;51.936;7.184;2022-12-07T15:57:14;8.50;;;2.97;;
46607;SDS011;32330;51.936;7.184;2022-12-07T15:59:41;11.27;;;3.47;;
46607;SDS011;32330;51.936;7.184;2022-12-07T16:02:08;11.45;;;4.07;;
46607;SDS011;32330;51.936;7.184;2022-12-07T16:04:36;12.38;;;4.15;;
46607;SDS011;32330;51.936;7.184;2022-12-07T16:07:04;11.68;;;3.10;;
46607;SDS011;32330;51.936;7.184;2022-12-07T16:09:31;11.75;;;2.90;;
46607;SDS011;32330;51.936;7.184;2022-12-07T16:11:58;10.63;;;3.65;;
46607;SDS011;32330;51.936;7.184;2022-12-07T16:14:25;9.13;;;4.20;;
46607;SDS011;32330;51.936;7.184;2022-12-07T16:16:52;15.85;;;3.42;;
46607;SDS011;32330;51.936;7.184;2022-12-07T16:19:19;10.77;;;3.70;;
46607;SDS011;32330;51.936;7.184;2022-12-07T16:21:46;12.68;;;3.30;;
46607;SDS011;32330;51.936;7.184;2022-12-07T16:24:14;10.10;;;3.53;;
46607;SDS011;32330;51.936;7.184;2022-12-07T16:26:41;7.15;;;3.42;;
46607;SDS011;32330;51.936;7.184;2022-12-07T16:29:10;12.60;;;4.85;;
46607;SDS011;32330;51.936;7.184;2022-12-07T16:31:38;10.52;;;4.30;;
46607;SDS011;32330;51.936;7.184;2022-12-07T16:34:05;8.60;;;4.13;;
46607;SDS011;32330;51.936;7.184;2022-12-07T16:36:33;13.90;;;4.75;;
46607;SDS011;32330;51.936;7.184;2022-12-07T16:39:00;13.88;;;4.57;;
46607;SDS011;32330;51.936;7.184;2022-12-07T16:41:29;11.80;;;4.78;;
46607;SDS011;32330;51.936;7.184;2022-12-07T16:43:56;13.38;;;5.50;;
46607;SDS011;32330;51.936;7.184;2022-12-07T16:46:23;10.40;;;5.18;;
46607;SDS011;32330;51.936;7.184;2022-12-07T16:48:50;12.65;;;5.25;;
46607;SDS011;32330;51.936;7.184;2022-12-07T16:51:17;14.30;;;5.28;;
46607;SDS011;32330;51.936;7.184;2022-12-07T16:53:44;10.82;;;4.57;;
46607;SDS011;32330;51.936;7.184;2022-12-07T16:56:12;9.15;;;4.47;;
46607;SDS011;32330;51.936;7.184;2022-12-07T16:58:42;8.52;;;3.05;;
46607;SDS011;32330;51.936;7.184;2022-12-07T17:01:10;5.72;;;3.03;;
46607;SDS011;32330;51.936;7.184;2022-12-07T17:03:37;6.60;;;3.63;;
46607;SDS011;32330;51.936;7.184;2022-12-07T17:06:10;8.68;;;2.70;;
46607;SDS011;32330;51.936;7.184;2022-12-07T17:08:39;7.85;;;2.90;;
46607;SDS011;32330;51.936;7.184;2022-12-07T17:11:09;7.65;;;3.15;;
46607;SDS011;32330;51.936;7.184;2022-12-07T17:13:37;6.38;;;3.40;;
46607;SDS011;32330;51.936;7.184;2022-12-07T17:16:22;6.45;;;3.92;;
46607;SDS011;32330;51.936;7.184;2022-12-07T17:18:50;4.88;;;2.60;;
46607;SDS011;32330;51.936;7.184;2022-12-07T17:21:17;6.15;;;2.70;;
46607;SDS011;32330;51.936;7.184;2022-12-07T17:23:44;6.85;;;3.45;;
46607;SDS011;32330;51.936;7.184;2022-12-07T17:26:12;5.10;;;2.67;;
46607;SDS011;32330;51.936;7.184;2022-12-07T17:28:41;6.70;;;2.90;;
46607;SDS011;32330;51.936;7.184;2022-12-07T17:31:08;6.40;;;2.53;;
46607;SDS011;32330;51.936;7.184;2022-12-07T17:33:38;5.70;;;2.80;;
46607;SDS011;32330;51.936;7.184;2022-12-07T17:36:09;6.15;;;2.92;;
46607;SDS011;32330;51.936;7.184;2022-12-07T17:41:08;8.07;;;3.83;;
46607;SDS011;32330;51.936;7.184;2022-12-07T17:43:35;9.05;;;4.32;;
46607;SDS011;32330;51.936;7.184;2022-12-07T17:46:05;7.07;;;3.15;;
46607;SDS011;32330;51.936;7.184;2022-12-07T17:48:33;8.65;;;3.50;;
46607;SDS011;32330;51.936;7.184;2022-12-07T17:51:01;6.60;;;3.45;;
46607;SDS011;32330;51.936;7.184;2022-12-07T17:53:47;8.57;;;3.28;;
46607;SDS011;32330;51.936;7.184;2022-12-07T17:56:16;7.43;;;2.95;;
46607;SDS011;32330;51.936;7.184;2022-12-07T17:58:43;5.30;;;3.13;;
46607;SDS011;32330;51.936;7.184;2022-12-07T18:01:10;5.95;;;2.83;;
46607;SDS011;32330;51.936;7.184;2022-12-07T18:03:37;5.88;;;2.60;;
46607;SDS011;32330;51.936;7.184;2022-12-07T18:06:05;12.90;;;5.88;;
46607;SDS011;32330;51.936;7.184;2022-12-07T18:08:33;6.65;;;3.20;;
46607;SDS011;32330;51.936;7.184;2022-12-07T18:11:03;6.65;;;3.08;;
46607;SDS011;32330;51.936;7.184;2022-12-07T18:13:31;9.77;;;3.75;;
46607;SDS011;32330;51.936;7.184;2022-12-07T18:16:01;5.00;;;2.90;;
46607;SDS011;32330;51.936;7.184;2022-12-07T18:18:29;5.90;;;3.35;;
46607;SDS011;32330;51.936;7.184;2022-12-07T18:20:56;6.82;;;3.75;;
46607;SDS011;32330;51.936;7.184;2022-12-07T18:23:24;8.10;;;4.63;;
46607;SDS011;32330;51.936;7.184;2022-12-07T18:25:51;9.70;;;4.65;;
46607;SDS011;32330;51.936;7.184;2022-12-07T18:28:19;8.13;;;5.07;;
46607;SDS011;32330;51.936;7.184;2022-12-07T18:30:46;8.25;;;4.53;;
46607;SDS011;32330;51.936;7.184;2022-12-07T18:33:15;9.05;;;5.20;;
46607;SDS011;32330;51.936;7.184;2022-12-07T18:35:43;10.85;;;5.65;;
46607;SDS011;32330;51.936;7.184;2022-12-07T18:38:10;13.23;;;6.97;;
46607;SDS011;32330;51.936;7.184;2022-12-07T18:40:39;10.73;;;6.05;;
46607;SDS011;32330;51.936;7.184;2022-12-07T18:43:07;8.73;;;5.38;;